Time;durP1;ratioP1;P1;durP2;ratioP2;P2;SDS_P1;SDS_P2;PMS_P1;PMS_P2;Temp;Humidity;BMP_temperature;BMP_pressure;BME280_temperature;BME280_humidity;BME280_pressure;Samples;Min_cycle;Max_cycle;Signal;HPM_P1;HPM_P2
2023/10/22 00:00:09;;;;;;;5.07;2.17;;;20.20;62.70;;;;;;4992578;28;20445;-78
2023/10/22 00:02:38;;;;;;;6.20;2.13;;;20.30;62.80;;;;;;4988524;28;20453;-77
2023/10/22 00:05:10;;;;;;;2.23;2.07;;;20.20;62.80;;;;;;4990964;28;20516;-76
2023/10/22 00:07:38;;;;;;;1.77;1.67;;;20.20;62.70;;;;;;4987553;28;20446;-78
2023/10/22 00:10:09;;;;;;;3.57;1.87;;;20.20;62.70;;;;;;4992584;28;20508;-78
2023/10/22 00:12:37;;;;;;;2.27;2.03;;;20.20;62.70;;;;;;5015999;23;20490;-79
2023/10/22 00:15:06;;;;;;;3.13;1.80;;;20.20;62.70;;;;;;4982348;28;20453;-79
2023/10/22 00:17:34;;;;;;;6.80;1.97;;;20.20;62.60;;;;;;5002166;28;20457;-79
2023/10/22 00:20:02;;;;;;;2.50;1.80;;;20.20;62.60;;;;;;4980289;28;20537;-79
2023/10/22 00:22:31;;;;;;;3.10;2.27;;;20.20;62.60;;;;;;4982299;28;20499;-80
2023/10/22 00:24:59;;;;;;;4.93;1.80;;;20.20;62.70;;;;;;4975340;28;20503;-79
2023/10/22 00:27:29;;;;;;;6.67;2.47;;;20.20;62.70;;;;;;4969563;28;20431;-80
2023/10/22 00:29:57;;;;;;;3.53;1.70;;;20.20;62.40;;;;;;4976216;28;20504;-80
2023/10/22 00:32:25;;;;;;;3.40;1.83;;;20.20;62.60;;;;;;4976343;28;20485;-80
2023/10/22 00:34:53;;;;;;;4.20;2.23;;;20.20;62.40;;;;;;4976051;28;20533;-80
2023/10/22 00:37:21;;;;;;;3.33;1.70;;;20.10;62.40;;;;;;4976102;28;20473;-80
2023/10/22 00:39:49;;;;;;;3.37;1.67;;;20.10;62.30;;;;;;4975739;28;20450;-80
2023/10/22 00:42:20;;;;;;;2.13;1.77;;;20.10;62.40;;;;;;4975546;28;20481;-80
2023/10/22 00:44:50;;;;;;;2.27;1.70;;;20.10;62.40;;;;;;4976837;28;20550;-80
2023/10/22 00:47:18;;;;;;;2.27;1.80;;;20.10;62.30;;;;;;4976084;28;20529;-80
2023/10/22 00:49:46;;;;;;;3.10;1.80;;;20.10;62.40;;;;;;4976259;28;20457;-80
2023/10/22 00:52:15;;;;;;;2.30;2.03;;;20.10;62.30;;;;;;4976140;28;20482;-80
2023/10/22 00:54:43;;;;;;;2.03;1.83;;;20.10;62.10;;;;;;4974523;28;20450;-78
2023/10/22 00:57:11;;;;;;;2.03;1.93;;;20.10;62.30;;;;;;4976964;28;20409;-78
2023/10/22 00:59:40;;;;;;;2.37;1.50;;;20.10;62.10;;;;;;4982186;28;20450;-79
2023/10/22 01:02:09;;;;;;;5.07;2.00;;;20.00;62.10;;;;;;4987457;28;20475;-79
2023/10/22 01:04:37;;;;;;;3.43;1.87;;;20.00;62.20;;;;;;4980340;28;20485;-79
2023/10/22 01:07:06;;;;;;;1.90;1.80;;;20.00;62.20;;;;;;4974481;28;20446;-79
2023/10/22 01:09:35;;;;;;;4.07;2.00;;;20.00;62.10;;;;;;4979768;28;20441;-79
2023/10/22 01:12:04;;;;;;;2.17;1.60;;;20.00;62.20;;;;;;4977264;28;20481;-79
2023/10/22 01:14:33;;;;;;;2.00;1.47;;;20.00;62.20;;;;;;4979823;28;20508;-80
2023/10/22 01:17:02;;;;;;;1.70;1.60;;;20.00;62.30;;;;;;4960799;28;20446;-79
2023/10/22 01:19:32;;;;;;;2.70;1.77;;;20.00;62.20;;;;;;4971722;28;20475;-78
2023/10/22 01:22:00;;;;;;;2.30;1.57;;;20.00;62.30;;;;;;4975896;28;20442;-78
2023/10/22 01:24:33;;;;;;;1.93;1.60;;;20.00;62.40;;;;;;4983694;28;20454;-79
2023/10/22 01:27:02;;;;;;;2.20;1.80;;;20.00;62.40;;;;;;4975055;28;20449;-80
2023/10/22 01:29:30;;;;;;;2.00;1.80;;;19.90;63.10;;;;;;4975112;28;20446;-79
2023/10/22 01:31:59;;;;;;;2.70;1.70;;;19.90;62.40;;;;;;4974099;28;20454;-79
2023/10/22 01:34:27;;;;;;;1.73;1.53;;;20.00;62.90;;;;;;4975113;28;20454;-80
2023/10/22 01:36:55;;;;;;;4.07;1.60;;;19.90;62.50;;;;;;4975069;28;20435;-79
2023/10/22 01:39:24;;;;;;;2.23;1.60;;;20.00;62.50;;;;;;4975602;28;20470;-78
2023/10/22 01:41:53;;;;;;;2.10;1.87;;;19.90;62.60;;;;;;4975334;28;20529;-79
2023/10/22 01:44:22;;;;;;;1.57;1.40;;;19.90;62.60;;;;;;4971854;28;20455;-78
2023/10/22 01:46:50;;;;;;;1.73;1.30;;;19.90;62.60;;;;;;4970406;28;20465;-79
2023/10/22 01:49:19;;;;;;;2.07;1.83;;;19.90;62.70;;;;;;4977098;28;20449;-79
2023/10/22 01:51:50;;;;;;;2.27;1.40;;;19.90;62.60;;;;;;4980865;28;20443;-79
2023/10/22 01:54:21;;;;;;;2.30;1.97;;;19.90;62.80;;;;;;4975257;28;20438;-76
2023/10/22 01:56:49;;;;;;;2.10;2.00;;;19.90;63.00;;;;;;4978331;28;20438;-78
2023/10/22 01:59:19;;;;;;;2.90;1.93;;;19.90;63.00;;;;;;4974855;28;20478;-78
2023/10/22 02:01:48;;;;;;;3.63;1.87;;;19.90;63.60;;;;;;4965354;28;20450;-79
2023/10/22 02:04:19;;;;;;;2.50;1.87;;;19.80;63.00;;;;;;4983683;28;20511;-79
2023/10/22 02:06:47;;;;;;;2.43;1.47;;;19.80;63.00;;;;;;4979451;28;20445;-79
2023/10/22 02:09:18;;;;;;;2.43;1.70;;;19.80;63.10;;;;;;4972455;28;20958;-79
2023/10/22 02:11:48;;;;;;;2.90;2.17;;;19.80;63.00;;;;;;4978280;28;20859;-79
2023/10/22 02:14:16;;;;;;;2.00;1.60;;;19.80;63.00;;;;;;4978839;28;20479;-80
2023/10/22 02:16:46;;;;;;;4.23;2.10;;;19.80;63.10;;;;;;4978319;28;20481;-79
2023/10/22 02:19:14;;;;;;;1.77;1.50;;;19.70;62.80;;;;;;4980639;28;20477;-80
2023/10/22 02:21:43;;;;;;;2.03;1.87;;;19.70;62.80;;;;;;4971528;28;20482;-80
2023/10/22 02:24:11;;;;;;;2.00;1.80;;;19.70;63.60;;;;;;4976843;28;20455;-79
2023/10/22 02:26:39;;;;;;;2.20;1.63;;;19.70;62.70;;;;;;4978114;28;20453;-80
2023/10/22 02:29:07;;;;;;;1.97;1.40;;;19.70;62.70;;;;;;4978757;28;20434;-79
2023/10/22 02:31:35;;;;;;;6.13;1.70;;;19.70;62.70;;;;;;4978000;28;20458;-79
2023/10/22 02:34:06;;;;;;;2.43;1.60;;;19.70;62.80;;;;;;4977469;28;20466;-80
2023/10/22 02:36:34;;;;;;;5.60;1.80;;;19.70;62.70;;;;;;4969812;28;20513;-80
2023/10/22 02:39:04;;;;;;;1.67;1.57;;;19.70;62.70;;;;;;4976473;28;20478;-79
2023/10/22 02:41:33;;;;;;;2.50;1.60;;;19.70;62.70;;;;;;4976679;28;20453;-80
2023/10/22 02:44:01;;;;;;;2.50;1.60;;;19.70;62.70;;;;;;4976655;28;20462;-79
2023/10/22 02:46:30;;;;;;;2.90;1.70;;;19.70;62.60;;;;;;4976505;28;20442;-79
2023/10/22 02:48:59;;;;;;;4.70;1.60;;;19.70;62.60;;;;;;4977277;28;20521;-79
2023/10/22 02:51:28;;;;;;;1.70;1.60;;;19.70;62.70;;;;;;4978034;28;20497;-79
2023/10/22 02:53:56;;;;;;;1.80;1.70;;;19.70;62.70;;;;;;4977245;28;20525;-78
2023/10/22 02:56:25;;;;;;;2.00;1.17;;;19.70;62.80;;;;;;4976160;28;20446;-78
2023/10/22 02:58:55;;;;;;;3.77;1.90;;;19.60;62.70;;;;;;4978187;28;20478;-78
2023/10/22 03:01:23;;;;;;;2.23;1.33;;;19.70;62.60;;;;;;4965178;28;20500;-78
2023/10/22 03:03:52;;;;;;;6.10;1.40;;;19.60;62.70;;;;;;4976235;28;20501;-78
2023/10/22 03:06:20;;;;;;;4.10;1.73;;;19.60;62.50;;;;;;4976221;28;20446;-78
2023/10/22 03:08:50;;;;;;;1.73;1.63;;;19.60;62.60;;;;;;4978258;28;20442;-78
2023/10/22 03:11:18;;;;;;;3.17;1.63;;;19.60;62.60;;;;;;4978124;28;20537;-79
2023/10/22 03:13:47;;;;;;;3.43;1.57;;;19.60;62.60;;;;;;4975053;28;20497;-78
2023/10/22 03:16:15;;;;;;;2.73;1.40;;;19.60;62.60;;;;;;4976979;28;20457;-78
2023/10/22 03:18:44;;;;;;;1.63;1.40;;;19.60;62.60;;;;;;4977522;28;21000;-78
2023/10/22 03:21:13;;;;;;;1.50;1.40;;;19.60;62.60;;;;;;4975719;28;20446;-78
2023/10/22 03:23:41;;;;;;;2.97;1.50;;;19.60;62.70;;;;;;4979317;28;20470;-78
2023/10/22 03:26:14;;;;;;;3.20;1.63;;;19.60;62.60;;;;;;4986739;28;20491;-78
2023/10/22 03:28:42;;;;;;;1.40;1.30;;;19.60;62.70;;;;;;4976643;28;20437;-78
2023/10/22 03:31:11;;;;;;;3.23;1.37;;;19.60;62.80;;;;;;4982956;28;20442;-79
2023/10/22 03:33:39;;;;;;;2.83;1.60;;;19.60;62.80;;;;;;4988188;28;20416;-79
2023/10/22 03:36:09;;;;;;;4.10;1.50;;;19.60;62.80;;;;;;4987590;28;20425;-79
2023/10/22 03:38:38;;;;;;;3.90;1.50;;;19.60;62.90;;;;;;4976103;28;20442;-79
2023/10/22 03:41:06;;;;;;;1.43;1.30;;;19.60;62.80;;;;;;4983255;28;20469;-79
2023/10/22 03:43:36;;;;;;;1.50;1.37;;;19.60;62.90;;;;;;4987784;28;20522;-79
2023/10/22 03:46:06;;;;;;;2.00;1.80;;;19.60;63.00;;;;;;4978893;28;20439;-79
2023/10/22 03:48:42;;;;;;;2.80;1.40;;;19.60;63.10;;;;;;4977484;28;20458;-79
2023/10/22 03:51:10;;;;;;;1.70;1.60;;;19.50;63.00;;;;;;4984759;28;20531;-79
2023/10/22 03:53:40;;;;;;;5.27;1.50;;;19.60;63.20;;;;;;4978426;28;20473;-80
2023/10/22 03:56:09;;;;;;;7.13;1.73;;;19.60;63.20;;;;;;4985985;28;20434;-80
2023/10/22 03:58:39;;;;;;;2.80;1.40;;;19.50;63.20;;;;;;4970630;28;20409;-80
2023/10/22 04:01:06;;;;;;;3.23;1.67;;;19.50;63.10;;;;;;4985741;28;20474;-80
2023/10/22 04:03:35;;;;;;;1.57;1.47;;;19.50;63.30;;;;;;4986100;28;20486;-80
2023/10/22 04:06:03;;;;;;;1.63;1.20;;;19.60;63.20;;;;;;4984636;28;20445;-80
2023/10/22 04:08:31;;;;;;;2.90;1.50;;;19.50;63.20;;;;;;4992078;28;20537;-80
2023/10/22 04:10:59;;;;;;;2.10;1.20;;;19.50;63.20;;;;;;4991800;28;20485;-80
2023/10/22 04:13:27;;;;;;;4.30;1.50;;;19.50;63.30;;;;;;4995081;28;20522;-80
2023/10/22 04:16:02;;;;;;;4.10;1.50;;;19.50;63.20;;;;;;4977370;28;20488;-80
2023/10/22 04:18:30;;;;;;;1.50;1.40;;;19.50;63.20;;;;;;4988836;28;20444;-80
2023/10/22 04:20:59;;;;;;;2.40;1.87;;;19.50;63.30;;;;;;4991390;28;20839;-80
2023/10/22 04:23:27;;;;;;;1.60;1.50;;;19.50;63.30;;;;;;4977673;28;20504;-80
2023/10/22 04:25:55;;;;;;;1.87;1.33;;;19.50;63.40;;;;;;4973075;28;20497;-80
2023/10/22 04:28:24;;;;;;;2.10;1.40;;;19.50;63.40;;;;;;4977507;28;20434;-80
2023/10/22 04:30:52;;;;;;;2.00;1.27;;;19.50;63.40;;;;;;4990879;28;20430;-80
2023/10/22 04:33:53;;;;;;;1.77;1.30;;;19.50;63.40;;;;;;4988334;28;20462;-80
2023/10/22 04:36:22;;;;;;;1.40;1.30;;;19.50;63.30;;;;;;4985824;28;20441;-79
2023/10/22 04:38:50;;;;;;;1.40;1.30;;;19.50;63.40;;;;;;4981794;28;20453;-79
2023/10/22 04:41:18;;;;;;;5.07;1.20;;;19.50;63.20;;;;;;4988385;28;20528;-79
2023/10/22 04:43:46;;;;;;;1.73;1.10;;;19.50;63.20;;;;;;4985212;28;20520;-79
2023/10/22 04:46:14;;;;;;;4.10;1.67;;;19.50;63.30;;;;;;4984549;28;20469;-78
2023/10/22 04:48:44;;;;;;;1.23;1.13;;;19.50;63.50;;;;;;4980750;28;20541;-80
2023/10/22 04:51:13;;;;;;;2.17;1.40;;;19.50;63.30;;;;;;4982315;28;20485;-80
2023/10/22 04:53:41;;;;;;;1.43;1.27;;;19.50;63.20;;;;;;4991914;28;20462;-79
2023/10/22 04:56:09;;;;;;;1.40;1.30;;;19.50;63.20;;;;;;4986537;28;20433;-78
2023/10/22 04:58:38;;;;;;;1.83;1.20;;;19.50;63.20;;;;;;4983364;28;20430;-78
2023/10/22 05:01:07;;;;;;;2.63;1.47;;;19.50;63.20;;;;;;4982445;28;20478;-78
2023/10/22 05:03:35;;;;;;;2.40;1.23;;;19.50;63.20;;;;;;4971911;28;20451;-79
2023/10/22 05:06:07;;;;;;;3.50;1.40;;;19.50;63.30;;;;;;4979299;28;20461;-79
2023/10/22 05:08:39;;;;;;;1.67;1.20;;;19.50;63.20;;;;;;4984578;28;20869;-78
2023/10/22 05:11:12;;;;;;;1.30;1.20;;;19.50;63.20;;;;;;4979093;28;20434;-78
2023/10/22 05:13:41;;;;;;;2.53;1.50;;;19.50;63.20;;;;;;4980567;28;20470;-78
2023/10/22 05:16:10;;;;;;;1.37;1.27;;;19.50;63.10;;;;;;4975079;28;20454;-78
2023/10/22 05:18:38;;;;;;;1.60;1.50;;;19.50;63.20;;;;;;4983130;28;20537;-78
2023/10/22 05:21:07;;;;;;;1.90;1.27;;;19.50;63.10;;;;;;4966394;28;20469;-78
2023/10/22 05:23:35;;;;;;;2.87;1.50;;;19.50;63.10;;;;;;4981546;28;20458;-78
2023/10/22 05:26:06;;;;;;;5.50;1.30;;;19.50;63.10;;;;;;4981167;28;20453;-79
2023/10/22 05:28:34;;;;;;;1.20;1.10;;;19.50;63.20;;;;;;4975354;28;20434;-79
2023/10/22 05:31:03;;;;;;;1.40;1.30;;;19.50;63.00;;;;;;4976389;28;20417;-78
2023/10/22 05:33:31;;;;;;;2.20;1.40;;;19.50;63.10;;;;;;4971208;28;20460;-79
2023/10/22 05:36:00;;;;;;;2.20;1.37;;;19.60;63.10;;;;;;4981866;28;20474;-79
2023/10/22 05:38:28;;;;;;;1.17;1.07;;;19.50;63.10;;;;;;4974981;28;20454;-79
2023/10/22 05:40:56;;;;;;;2.03;1.13;;;19.60;63.00;;;;;;4980295;28;20470;-80
2023/10/22 05:43:26;;;;;;;1.50;1.33;;;19.60;63.00;;;;;;4980216;28;20466;-78
2023/10/22 05:45:57;;;;;;;1.50;1.40;;;19.60;62.90;;;;;;4987329;28;20441;-79
2023/10/22 05:48:25;;;;;;;1.13;1.00;;;19.60;62.90;;;;;;4981212;28;20437;-80
2023/10/22 05:50:54;;;;;;;1.37;1.27;;;19.60;62.90;;;;;;4980642;28;20446;-80
2023/10/22 05:53:22;;;;;;;1.07;0.97;;;19.60;62.90;;;;;;4989197;28;20539;-80
2023/10/22 05:55:57;;;;;;;1.63;1.30;;;19.60;62.90;;;;;;4976356;28;20413;-79
2023/10/22 05:58:27;;;;;;;1.43;1.30;;;19.60;62.80;;;;;;4980267;28;20532;-79
2023/10/22 06:00:55;;;;;;;1.97;1.00;;;19.60;62.80;;;;;;4975999;28;20499;-80
2023/10/22 06:03:23;;;;;;;1.37;1.20;;;19.60;62.80;;;;;;4974746;28;20564;-80
2023/10/22 06:05:51;;;;;;;2.77;1.30;;;19.60;62.70;;;;;;4979867;28;20480;-80
2023/10/22 06:08:19;;;;;;;1.37;1.10;;;19.60;62.70;;;;;;4978961;28;20446;-79
2023/10/22 06:10:48;;;;;;;1.20;1.10;;;19.70;62.70;;;;;;4977750;28;20525;-79
2023/10/22 06:13:16;;;;;;;2.00;1.07;;;19.60;62.60;;;;;;4979259;28;20481;-78
2023/10/22 06:15:46;;;;;;;0.93;0.93;;;19.70;62.60;;;;;;4971286;28;20450;-78
2023/10/22 06:18:14;;;;;;;2.57;1.30;;;19.70;62.40;;;;;;4979670;28;20445;-80
2023/10/22 06:20:42;;;;;;;1.53;1.17;;;19.70;62.60;;;;;;4979232;28;20469;-80
2023/10/22 06:23:10;;;;;;;2.33;0.97;;;19.70;62.60;;;;;;4979400;28;21148;-81
2023/10/22 06:25:40;;;;;;;1.17;1.10;;;19.70;62.60;;;;;;4971272;28;20474;-80
2023/10/22 06:28:08;;;;;;;1.57;1.00;;;19.70;62.60;;;;;;4974340;28;20807;-80
2023/10/22 06:30:36;;;;;;;2.00;1.07;;;19.70;62.40;;;;;;4984642;28;20508;-80
2023/10/22 06:33:06;;;;;;;2.20;1.40;;;19.80;62.50;;;;;;4987383;28;20465;-81
2023/10/22 06:35:34;;;;;;;1.40;1.03;;;19.80;62.60;;;;;;4978953;28;20434;-81
2023/10/22 06:38:02;;;;;;;1.43;1.23;;;19.80;62.40;;;;;;4979037;28;20457;-81
2023/10/22 06:40:30;;;;;;;2.07;1.20;;;19.80;62.40;;;;;;4980927;28;20552;-80
2023/10/22 06:42:58;;;;;;;1.53;1.20;;;19.80;62.50;;;;;;4977923;28;20552;-80
2023/10/22 06:45:27;;;;;;;0.97;0.97;;;19.80;62.40;;;;;;4986129;28;20445;-80
2023/10/22 06:47:57;;;;;;;3.67;1.10;;;19.80;62.40;;;;;;4982801;28;20468;-80
2023/10/22 06:50:26;;;;;;;1.53;1.07;;;19.80;62.50;;;;;;4982516;28;20466;-80
2023/10/22 06:52:54;;;;;;;1.57;1.30;;;19.80;62.40;;;;;;4978509;28;20981;-79
2023/10/22 06:55:22;;;;;;;1.07;0.90;;;19.90;62.60;;;;;;4971055;28;20459;-79
2023/10/22 06:57:50;;;;;;;1.20;1.10;;;19.80;62.70;;;;;;4984771;28;20450;-78
2023/10/22 07:00:19;;;;;;;1.50;1.40;;;19.80;62.90;;;;;;4978458;28;20462;-79
2023/10/22 07:02:47;;;;;;;1.20;1.10;;;19.80;63.00;;;;;;4980198;28;20549;-80
2023/10/22 07:05:15;;;;;;;2.10;1.27;;;19.90;63.20;;;;;;4990252;28;20448;-80
2023/10/22 07:07:45;;;;;;;1.20;1.00;;;19.90;63.40;;;;;;4981012;28;20469;-80
2023/10/22 07:10:13;;;;;;;3.43;1.20;;;19.90;63.50;;;;;;4977147;28;20454;-80
2023/10/22 07:12:41;;;;;;;1.63;1.10;;;19.90;63.50;;;;;;4978439;28;20494;-79
2023/10/22 07:15:12;;;;;;;1.33;1.10;;;19.90;63.70;;;;;;4980604;28;20533;-79
2023/10/22 07:17:40;;;;;;;1.17;1.07;;;19.90;63.80;;;;;;4979017;28;20473;-79
2023/10/22 07:20:08;;;;;;;2.13;1.50;;;19.90;63.90;;;;;;4977998;28;20446;-79
2023/10/22 07:22:36;;;;;;;1.00;1.00;;;19.90;64.10;;;;;;4978159;28;20561;-80
2023/10/22 07:25:07;;;;;;;3.07;1.27;;;19.90;64.00;;;;;;4982600;28;20470;-80
2023/10/22 07:27:35;;;;;;;1.07;0.97;;;19.90;64.10;;;;;;4974855;28;20492;-80
2023/10/22 07:30:03;;;;;;;1.87;1.33;;;19.90;64.80;;;;;;4986365;28;20533;-80
2023/10/22 07:32:31;;;;;;;1.67;1.20;;;19.90;64.40;;;;;;4977669;28;20489;-80
2023/10/22 07:34:59;;;;;;;1.33;1.17;;;19.90;64.50;;;;;;4963999;28;20438;-80
2023/10/22 07:37:27;;;;;;;0.97;0.93;;;19.90;64.60;;;;;;4978660;28;20484;-79
2023/10/22 07:39:55;;;;;;;1.40;1.30;;;19.90;64.60;;;;;;4971565;28;20454;-80
2023/10/22 07:42:26;;;;;;;1.73;1.13;;;19.90;64.90;;;;;;4961000;28;20481;-79
2023/10/22 07:44:54;;;;;;;2.20;1.07;;;19.90;64.90;;;;;;4983203;28;20481;-79
2023/10/22 07:47:22;;;;;;;3.73;1.10;;;19.90;65.00;;;;;;4973958;28;20505;-80
2023/10/22 07:49:52;;;;;;;1.33;1.23;;;19.90;65.00;;;;;;4972304;28;20442;-79
2023/10/22 07:52:20;;;;;;;1.57;1.23;;;19.90;65.20;;;;;;4977137;28;20433;-80
2023/10/22 07:54:52;;;;;;;1.53;0.90;;;19.90;65.30;;;;;;4976629;28;20525;-81
2023/10/22 07:57:20;;;;;;;1.40;1.30;;;19.90;65.30;;;;;;4979929;28;20438;-80
2023/10/22 07:59:53;;;;;;;1.17;1.07;;;19.90;65.50;;;;;;4982514;28;20445;-80
2023/10/22 08:02:21;;;;;;;1.67;1.27;;;19.90;65.50;;;;;;4982275;28;20481;-80
2023/10/22 08:04:50;;;;;;;1.37;1.30;;;19.90;65.40;;;;;;4969460;28;20447;-80
2023/10/22 08:07:29;;;;;;;1.37;1.23;;;19.90;65.50;;;;;;4971248;28;20445;-80
2023/10/22 08:10:05;;;;;;;1.60;1.50;;;20.00;65.60;;;;;;4974081;28;20475;-79
2023/10/22 08:12:33;;;;;;;1.23;1.17;;;20.00;65.70;;;;;;4978527;28;20553;-79
2023/10/22 08:15:03;;;;;;;1.53;1.43;;;20.00;65.80;;;;;;4969451;28;20446;-79
2023/10/22 08:17:31;;;;;;;1.97;1.67;;;20.00;66.50;;;;;;4976678;28;20449;-79
2023/10/22 08:19:59;;;;;;;1.60;1.37;;;20.00;66.00;;;;;;4985501;28;20445;-79
2023/10/22 08:22:27;;;;;;;1.43;1.33;;;20.00;65.90;;;;;;4978653;28;20474;-81
2023/10/22 08:24:56;;;;;;;1.80;1.30;;;20.00;66.00;;;;;;4970232;28;20469;-79
2023/10/22 08:27:24;;;;;;;1.40;1.30;;;20.00;66.10;;;;;;4973244;28;20455;-80
2023/10/22 08:29:54;;;;;;;1.60;1.50;;;20.00;66.10;;;;;;4974006;28;20450;-79
2023/10/22 08:32:24;;;;;;;1.60;1.50;;;20.00;66.20;;;;;;4976610;28;20461;-79
2023/10/22 08:34:52;;;;;;;2.10;1.40;;;20.00;66.20;;;;;;4976820;28;20457;-80
2023/10/22 08:37:20;;;;;;;1.40;1.40;;;20.10;66.20;;;;;;4975501;28;20434;-80
2023/10/22 08:39:58;;;;;;;1.73;1.40;;;20.10;66.20;;;;;;4979892;28;20457;-78
2023/10/22 08:42:33;;;;;;;1.77;1.40;;;20.10;66.20;;;;;;4973025;28;20478;-81
2023/10/22 08:45:14;;;;;;;1.77;1.50;;;20.10;66.20;;;;;;4967890;28;20505;-79
2023/10/22 08:47:47;;;;;;;1.50;1.40;;;20.10;66.20;;;;;;4970604;28;20458;-78
2023/10/22 08:50:16;;;;;;;1.40;1.30;;;20.10;66.10;;;;;;4972225;28;20544;-79
2023/10/22 08:52:48;;;;;;;1.40;1.40;;;20.10;66.30;;;;;;4974628;28;20458;-78
2023/10/22 08:55:35;;;;;;;1.70;1.60;;;20.10;66.30;;;;;;4968431;28;20426;-79
2023/10/22 08:58:03;;;;;;;3.90;1.40;;;20.10;66.40;;;;;;4964726;28;20442;-79
2023/10/22 09:00:31;;;;;;;2.13;1.70;;;20.10;66.40;;;;;;4976076;28;20459;-79
2023/10/22 09:03:01;;;;;;;1.70;1.50;;;20.10;66.40;;;;;;4972176;28;20478;-79
2023/10/22 09:05:29;;;;;;;1.70;1.60;;;20.20;67.30;;;;;;4969686;28;20429;-79
2023/10/22 09:07:58;;;;;;;1.87;1.30;;;20.10;66.50;;;;;;4964369;28;20457;-79
2023/10/22 09:10:28;;;;;;;2.00;1.77;;;20.20;66.70;;;;;;4983165;28;20478;-79
2023/10/22 09:13:10;;;;;;;1.90;1.80;;;20.10;66.80;;;;;;4970702;28;20470;-78
2023/10/22 09:15:38;;;;;;;1.60;1.50;;;20.20;66.90;;;;;;4972243;28;20950;-79
2023/10/22 09:18:07;;;;;;;1.83;1.73;;;20.20;66.80;;;;;;4982781;28;20445;-79
2023/10/22 09:20:35;;;;;;;1.60;1.50;;;20.30;66.90;;;;;;4980937;28;20450;-80
2023/10/22 09:23:14;;;;;;;2.10;1.47;;;20.30;66.60;;;;;;4984789;28;20548;-80
2023/10/22 09:25:42;;;;;;;1.70;1.60;;;20.40;66.80;;;;;;4975352;28;20479;-77
2023/10/22 09:28:20;;;;;;;1.73;1.63;;;20.40;66.60;;;;;;4974411;28;20449;-77
2023/10/22 09:30:48;;;;;;;4.73;1.87;;;20.50;66.70;;;;;;4978377;28;20435;-77
2023/10/22 09:33:19;;;;;;;1.80;1.70;;;20.70;66.60;;;;;;4978082;28;20960;-80
2023/10/22 09:35:58;;;;;;;3.50;1.63;;;20.80;66.50;;;;;;4983673;28;20431;-80
2023/10/22 09:38:42;;;;;;;2.60;1.60;;;20.90;66.40;;;;;;4971628;28;20459;-80
2023/10/22 09:41:12;;;;;;;2.03;1.67;;;21.00;66.00;;;;;;4979158;28;20428;-82
2023/10/22 09:43:40;;;;;;;2.43;1.73;;;21.00;65.80;;;;;;4979142;28;21012;-82
2023/10/22 09:46:09;;;;;;;2.40;1.90;;;21.10;65.30;;;;;;4979835;28;20533;-83
2023/10/22 09:48:39;;;;;;;1.80;1.70;;;21.10;65.50;;;;;;4972432;28;20454;-82
2023/10/22 09:51:07;;;;;;;1.70;1.60;;;21.10;65.20;;;;;;4970235;28;20425;-82
2023/10/22 09:53:40;;;;;;;2.47;1.60;;;21.10;65.70;;;;;;4972980;28;20469;-81
2023/10/22 09:56:09;;;;;;;1.77;1.67;;;21.20;65.50;;;;;;4979038;28;20438;-81
2023/10/22 09:58:42;;;;;;;3.53;2.03;;;21.20;65.60;;;;;;4974975;28;20521;-81
2023/10/22 10:01:13;;;;;;;1.80;1.70;;;21.20;65.50;;;;;;4976889;28;20458;-82
2023/10/22 10:03:43;;;;;;;1.60;1.50;;;21.20;65.60;;;;;;4977037;28;21049;-81
2023/10/22 10:06:11;;;;;;;2.00;1.90;;;21.30;65.80;;;;;;4973849;28;20449;-81
2023/10/22 10:08:40;;;;;;;3.03;2.17;;;21.30;65.70;;;;;;4978371;28;20466;-82
2023/10/22 10:11:08;;;;;;;3.67;1.77;;;21.30;65.80;;;;;;4978865;28;20457;-82
2023/10/22 10:13:36;;;;;;;1.93;1.83;;;21.30;65.70;;;;;;4966122;28;20478;-82
2023/10/22 10:16:05;;;;;;;1.83;1.70;;;21.30;65.70;;;;;;4979397;28;20458;-80
2023/10/22 10:19:00;;;;;;;1.83;1.50;;;21.40;66.00;;;;;;4979238;28;20438;-80
2023/10/22 10:21:40;;;;;;;3.10;1.87;;;21.40;65.80;;;;;;4976258;28;20478;-83
2023/10/22 10:24:19;;;;;;;1.90;1.80;;;21.50;65.90;;;;;;4985816;28;20466;-80
2023/10/22 10:26:50;;;;;;;3.33;2.10;;;21.60;65.90;;;;;;4977687;28;20525;-81
2023/10/22 10:29:19;;;;;;;2.77;1.70;;;21.70;65.70;;;;;;4983711;28;20429;-80
2023/10/22 10:31:48;;;;;;;1.60;1.40;;;21.80;65.90;;;;;;4987894;28;20461;-80
2023/10/22 10:34:31;;;;;;;1.87;1.50;;;21.90;65.80;;;;;;4976921;28;20446;-81
2023/10/22 10:37:09;;;;;;;2.70;2.10;;;22.00;65.60;;;;;;4983180;28;20424;-80
2023/10/22 10:39:38;;;;;;;2.10;2.00;;;22.10;65.30;;;;;;4980733;28;20450;-80
2023/10/22 10:42:07;;;;;;;1.90;1.80;;;22.20;65.20;;;;;;4984406;28;20489;-80
2023/10/22 10:45:02;;;;;;;2.20;1.87;;;22.30;65.00;;;;;;4977771;28;20466;-80
2023/10/22 10:47:32;;;;;;;2.53;1.80;;;22.40;64.90;;;;;;4975412;28;20537;-81
2023/10/22 10:50:31;;;;;;;3.00;2.10;;;22.50;64.60;;;;;;4991134;28;20420;-80
2023/10/22 10:53:02;;;;;;;2.10;1.83;;;22.60;64.60;;;;;;4981691;28;20478;-79
2023/10/22 10:55:33;;;;;;;1.90;1.80;;;22.80;65.00;;;;;;4978400;28;20428;-79
2023/10/22 10:58:02;;;;;;;1.90;1.80;;;23.40;65.80;;;;;;4975531;28;20452;-80
2023/10/22 11:00:31;;;;;;;2.00;1.90;;;23.90;63.10;;;;;;4976802;28;20417;-78
2023/10/22 11:03:01;;;;;;;2.30;2.20;;;23.70;62.40;;;;;;4978387;28;20483;-79
2023/10/22 11:05:35;;;;;;;1.53;1.43;;;23.70;63.40;;;;;;4983144;28;20454;-79
2023/10/22 11:08:05;;;;;;;2.07;1.97;;;23.60;62.90;;;;;;4981674;28;20454;-79
2023/10/22 11:10:34;;;;;;;1.80;1.70;;;23.40;63.20;;;;;;4980356;28;20450;-79
2023/10/22 11:13:02;;;;;;;1.83;1.73;;;23.30;63.60;;;;;;4991046;28;20466;-79
2023/10/22 11:15:46;;;;;;;1.60;1.50;;;23.10;63.80;;;;;;4981023;28;20429;-78
2023/10/22 11:18:21;;;;;;;2.23;2.13;;;23.00;64.10;;;;;;4978197;28;20454;-78
2023/10/22 11:21:00;;;;;;;1.60;1.50;;;23.00;65.00;;;;;;4982060;28;20454;-79
2023/10/22 11:23:33;;;;;;;3.50;1.70;;;23.00;65.00;;;;;;4980777;28;20527;-79
2023/10/22 11:26:02;;;;;;;2.00;1.90;;;23.00;64.80;;;;;;4981819;28;20436;-78
2023/10/22 11:28:30;;;;;;;1.90;1.73;;;23.00;64.70;;;;;;4975069;28;20483;-80
2023/10/22 11:30:59;;;;;;;2.53;2.30;;;23.10;65.10;;;;;;4983402;28;20447;-79
2023/10/22 11:33:28;;;;;;;2.00;1.90;;;23.20;64.90;;;;;;4982589;28;20464;-80
2023/10/22 11:36:00;;;;;;;1.80;1.70;;;23.20;64.80;;;;;;4980116;28;20413;-80
2023/10/22 11:38:28;;;;;;;3.17;1.97;;;23.20;64.30;;;;;;4984215;28;20414;-80
2023/10/22 11:41:03;;;;;;;2.40;1.87;;;23.10;64.90;;;;;;4962136;28;20421;-79
2023/10/22 11:43:31;;;;;;;2.00;1.90;;;23.20;64.70;;;;;;4975698;28;20554;-82
2023/10/22 11:46:00;;;;;;;1.90;1.80;;;23.20;64.50;;;;;;4981691;28;20469;-80
2023/10/22 11:48:28;;;;;;;2.50;1.73;;;23.10;64.50;;;;;;4977253;28;20475;-79
2023/10/22 11:50:58;;;;;;;1.87;1.77;;;23.00;64.70;;;;;;4979465;28;20452;-80
2023/10/22 11:53:28;;;;;;;2.37;2.00;;;23.00;64.90;;;;;;4978413;28;20452;-79
2023/10/22 11:55:56;;;;;;;2.13;1.90;;;23.00;65.00;;;;;;4982205;28;20456;-80
2023/10/22 11:58:25;;;;;;;1.93;1.83;;;22.80;64.90;;;;;;4970077;28;20451;-79
2023/10/22 12:00:54;;;;;;;1.93;1.77;;;22.80;65.30;;;;;;4976525;28;20421;-79
2023/10/22 12:03:27;;;;;;;1.93;1.77;;;22.80;65.30;;;;;;4983811;28;20444;-79
2023/10/22 12:05:59;;;;;;;1.93;1.83;;;22.90;65.60;;;;;;4980933;28;20454;-79
2023/10/22 12:08:28;;;;;;;1.97;1.87;;;22.90;65.20;;;;;;4975858;28;20487;-80
2023/10/22 12:12:05;;;;;;;4.17;2.07;;;23.00;65.10;;;;;;4987248;28;20449;-79
2023/10/22 12:15:09;;;;;;;2.30;1.60;;;23.00;65.30;;;;;;4805451;29;20451;-79
2023/10/22 12:17:44;;;;;;;4.93;2.17;;;23.00;65.10;;;;;;4867155;28;20462;-77
2023/10/22 12:20:20;;;;;;;1.83;1.60;;;23.10;64.90;;;;;;4974607;28;20448;-78
2023/10/22 12:26:22;;;;;;;2.20;2.10;;;24.60;62.00;;;;;;4963882;28;20470;-79
2023/10/22 12:28:53;;;;;;;2.77;2.17;;;24.40;61.00;;;;;;4972150;28;20457;-77
2023/10/22 12:31:28;;;;;;;2.20;2.00;;;24.10;61.20;;;;;;4966469;28;20485;-77
2023/10/22 12:33:59;;;;;;;2.17;1.97;;;23.80;61.60;;;;;;4965517;28;20468;-78
2023/10/22 12:36:30;;;;;;;1.80;1.70;;;23.60;62.30;;;;;;4972337;28;20450;-80
2023/10/22 12:39:01;;;;;;;1.90;1.80;;;23.40;62.70;;;;;;4973795;28;20442;-78
2023/10/22 12:41:47;;;;;;;1.80;1.70;;;23.30;63.00;;;;;;4975641;28;20432;-79
2023/10/22 12:44:20;;;;;;;2.00;1.83;;;23.10;63.40;;;;;;4978124;28;20465;-79
2023/10/22 12:46:52;;;;;;;1.50;1.40;;;23.00;63.90;;;;;;4974674;28;20424;-78
2023/10/22 12:49:21;;;;;;;1.73;1.63;;;22.90;64.00;;;;;;4976204;28;20510;-78
2023/10/22 12:51:54;;;;;;;2.20;2.00;;;22.80;64.20;;;;;;4979127;28;20421;-79
2023/10/22 12:54:28;;;;;;;2.43;1.93;;;22.70;64.60;;;;;;4979775;28;20423;-80
2023/10/22 12:57:00;;;;;;;2.23;2.13;;;22.70;64.60;;;;;;4977892;28;20563;-78
2023/10/22 12:59:32;;;;;;;2.53;2.00;;;22.60;64.80;;;;;;4979947;28;20500;-78
2023/10/22 13:02:03;;;;;;;2.50;1.97;;;22.50;65.00;;;;;;4980564;28;20416;-78
2023/10/22 13:04:32;;;;;;;3.50;2.07;;;22.50;65.20;;;;;;4974725;28;20436;-78
2023/10/22 13:07:03;;;;;;;2.20;2.10;;;22.50;65.30;;;;;;4974605;28;20496;-78